East Coulee, Canada
Current Conditions -  °F | °C
As of 11:00 PM on Friday 19 Dec 2014 (Local Time) from CYYC Reporting Station
Broken Clouds Broken Clouds  
Wind Chill: 31°   Ceiling: 11000
Heat Index: 36°   Visibility: 15mi
Dew Point: 23°   Wind: 6mph
Humidity: 60%   Direction: 360°N
Pressure: 29.69"   Gusts: NA
Location:  51.33°N, 112.48°W
Report Text: CYYC 200600Z 36005KT 15SM BKN110 02/M05 A2969 RMK AC6 SLP093
Loading
Personal Weather Stations






























Interactive Weather Map New forecast layout! Learn more

10-Day Weather Forecast

Advertisements
Track Severe Weather on mobile